QTR317 OERK-OEDF
Flight info
| Callsign | QTR317 |
|---|---|
| Flight time | 0h 32m |
| Altitude | 29000 |
| Route | ALTAV H976 MUSRI L604 UMENA |
| Aircraft | A359/H-SDE2E3GHIJ3J4J5LM1ORWXY/LB1D1 |
Departure
| Time | 2026-05-08 17:54 |
|---|---|
| Airport | King Khalid International Airport (OERK) |
Arrival
| Time | 2026-05-08 18:26 |
|---|---|
| Airport | King Fahd International Airport (OEDF) |
| Time | Latitude | Longitude | Altitude | Speed | Heading |
|---|---|---|---|---|---|
| 2026-05-08 17:14 | 24.95952 | 46.70523 | 2009 ft | 0 kts | 239° |
| 2026-05-08 17:41 | 24.95953 | 46.70525 | 2036 ft | 2 kts | 239° |
| 2026-05-08 17:42 | 24.95967 | 46.70548 | 2045 ft | 4 kts | 231° |
| 2026-05-08 17:42 | 24.95985 | 46.70570 | 2046 ft | 4 kts | 220° |
| 2026-05-08 17:42 | 24.96007 | 46.70586 | 2046 ft | 4 kts | 198° |
| 2026-05-08 17:42 | 24.96030 | 46.70588 | 2046 ft | 2 kts | 151° |
| 2026-05-08 17:43 | 24.96031 | 46.70587 | 2046 ft | 0 kts | 150° |
| 2026-05-08 17:46 | 24.96026 | 46.70590 | 2046 ft | 5 kts | 150° |
| 2026-05-08 17:46 | 24.95966 | 46.70628 | 2044 ft | 12 kts | 150° |
| 2026-05-08 17:46 | 24.95889 | 46.70677 | 2043 ft | 14 kts | 148° |
| 2026-05-08 17:46 | 24.95862 | 46.70763 | 2041 ft | 13 kts | 71° |
| 2026-05-08 17:47 | 24.95905 | 46.70856 | 2046 ft | 14 kts | 61° |
| 2026-05-08 17:47 | 24.95928 | 46.70948 | 2044 ft | 11 kts | 100° |
| 2026-05-08 17:47 | 24.95872 | 46.71004 | 2043 ft | 12 kts | 149° |
| 2026-05-08 17:47 | 24.95821 | 46.71036 | 2046 ft | 13 kts | 150° |
| 2026-05-08 17:48 | 24.95701 | 46.71113 | 2039 ft | 16 kts | 150° |
| 2026-05-08 17:48 | 24.95597 | 46.71178 | 2045 ft | 18 kts | 148° |
| 2026-05-08 17:48 | 24.95485 | 46.71249 | 2046 ft | 20 kts | 150° |
| 2026-05-08 17:48 | 24.95363 | 46.71326 | 2046 ft | 21 kts | 150° |
| 2026-05-08 17:49 | 24.95232 | 46.71409 | 2041 ft | 23 kts | 150° |
| 2026-05-08 17:49 | 24.95091 | 46.71498 | 2047 ft | 24 kts | 150° |
| 2026-05-08 17:49 | 24.94944 | 46.71591 | 2046 ft | 25 kts | 150° |
| 2026-05-08 17:49 | 24.94792 | 46.71688 | 2047 ft | 25 kts | 150° |
| 2026-05-08 17:50 | 24.94637 | 46.71786 | 2047 ft | 26 kts | 150° |
| 2026-05-08 17:50 | 24.94476 | 46.71887 | 2048 ft | 27 kts | 150° |
| 2026-05-08 17:50 | 24.94325 | 46.71986 | 2048 ft | 19 kts | 141° |
| 2026-05-08 17:50 | 24.94323 | 46.72102 | 2048 ft | 13 kts | 59° |
| 2026-05-08 17:51 | 24.94326 | 46.72108 | 2048 ft | 0 kts | 59° |
| 2026-05-08 17:52 | 24.94331 | 46.72118 | 2048 ft | 3 kts | 60° |
| 2026-05-08 17:53 | 24.94346 | 46.72146 | 2044 ft | 5 kts | 60° |
| 2026-05-08 17:53 | 24.94417 | 46.72241 | 2048 ft | 27 kts | 23° |
| 2026-05-08 17:53 | 24.94530 | 46.72199 | 2041 ft | 21 kts | 329° |
| 2026-05-08 17:53 | 24.94857 | 46.71991 | 2046 ft | 89 kts | 329° |
| 2026-05-08 17:54 | 24.95580 | 46.71534 | 2047 ft | 148 kts | 330° |
| 2026-05-08 17:54 | 24.96594 | 46.70887 | 2336 ft | 176 kts | 333° |
| 2026-05-08 17:54 | 24.97640 | 46.70163 | 2975 ft | 185 kts | 330° |
| 2026-05-08 17:54 | 24.98773 | 46.69326 | 3438 ft | 206 kts | 329° |
| 2026-05-08 17:55 | 25.00064 | 46.68606 | 4000 ft | 209 kts | 352° |
| 2026-05-08 17:55 | 25.01476 | 46.68920 | 4545 ft | 216 kts | 31° |
| 2026-05-08 17:55 | 25.02411 | 46.70217 | 5195 ft | 221 kts | 63° |
| 2026-05-08 17:55 | 25.03134 | 46.71749 | 5712 ft | 229 kts | 55° |
| 2026-05-08 17:56 | 25.04314 | 46.72929 | 6234 ft | 238 kts | 37° |
| 2026-05-08 17:56 | 25.05778 | 46.73979 | 6556 ft | 264 kts | 33° |
| 2026-05-08 17:56 | 25.07399 | 46.75078 | 7033 ft | 280 kts | 34° |
| 2026-05-08 17:56 | 25.09059 | 46.76207 | 7696 ft | 287 kts | 33° |
| 2026-05-08 17:57 | 25.10809 | 46.77405 | 8432 ft | 296 kts | 33° |
| 2026-05-08 17:57 | 25.12585 | 46.78623 | 9227 ft | 302 kts | 33° |
| 2026-05-08 17:57 | 25.14386 | 46.79864 | 10089 ft | 307 kts | 33° |
| 2026-05-08 17:57 | 25.16242 | 46.81150 | 10603 ft | 325 kts | 33° |
| 2026-05-08 17:58 | 25.18214 | 46.82529 | 10980 ft | 346 kts | 33° |
| 2026-05-08 17:58 | 25.20307 | 46.83980 | 11386 ft | 363 kts | 31° |
| 2026-05-08 17:58 | 25.22547 | 46.85352 | 11992 ft | 372 kts | 31° |
| 2026-05-08 17:58 | 25.24701 | 46.86980 | 12682 ft | 378 kts | 37° |
| 2026-05-08 17:59 | 25.26772 | 46.88747 | 13390 ft | 384 kts | 38° |
| 2026-05-08 17:59 | 25.28878 | 46.90589 | 14112 ft | 387 kts | 38° |
| 2026-05-08 17:59 | 25.30987 | 46.92472 | 14785 ft | 392 kts | 39° |
| 2026-05-08 17:59 | 25.33090 | 46.94411 | 15425 ft | 397 kts | 39° |
| 2026-05-08 18:00 | 25.35203 | 46.96391 | 16062 ft | 401 kts | 40° |
| 2026-05-08 18:00 | 25.39505 | 47.00445 | 17396 ft | 410 kts | 39° |
| 2026-05-08 18:00 | 25.41691 | 47.02497 | 18048 ft | 415 kts | 39° |
| 2026-05-08 18:01 | 25.43905 | 47.04570 | 18632 ft | 418 kts | 39° |
| 2026-05-08 18:01 | 25.46135 | 47.06656 | 18929 ft | 420 kts | 39° |
| 2026-05-08 18:01 | 25.48390 | 47.08762 | 19002 ft | 428 kts | 39° |
| 2026-05-08 18:01 | 25.50685 | 47.10906 | 19006 ft | 432 kts | 39° |
| 2026-05-08 18:02 | 25.52984 | 47.13055 | 19005 ft | 433 kts | 39° |
| 2026-05-08 18:02 | 25.54505 | 47.14477 | 19002 ft | 433 kts | 39° |
| 2026-05-08 18:02 | 25.56807 | 47.16632 | 19002 ft | 433 kts | 39° |
| 2026-05-08 18:02 | 25.59893 | 47.19523 | 19001 ft | 433 kts | 39° |
| 2026-05-08 18:03 | 25.62192 | 47.21677 | 19008 ft | 434 kts | 39° |
| 2026-05-08 18:03 | 25.64473 | 47.23815 | 18995 ft | 435 kts | 40° |
| 2026-05-08 18:03 | 25.66784 | 47.25983 | 18993 ft | 436 kts | 40° |
| 2026-05-08 18:03 | 25.69094 | 47.28152 | 18993 ft | 436 kts | 40° |
| 2026-05-08 18:04 | 25.71416 | 47.30334 | 18987 ft | 436 kts | 40° |
| 2026-05-08 18:04 | 25.73756 | 47.32463 | 18984 ft | 436 kts | 35° |
| 2026-05-08 18:04 | 25.75404 | 47.33729 | 18987 ft | 435 kts | 33° |
| 2026-05-08 18:04 | 25.78819 | 47.36167 | 18985 ft | 435 kts | 31° |
| 2026-05-08 18:05 | 25.80524 | 47.37331 | 18987 ft | 435 kts | 30° |
| 2026-05-08 18:05 | 25.83998 | 47.39657 | 18977 ft | 435 kts | 30° |
| 2026-05-08 18:05 | 25.85717 | 47.40800 | 18979 ft | 435 kts | 30° |
| 2026-05-08 18:05 | 25.89159 | 47.43093 | 18973 ft | 435 kts | 30° |
| 2026-05-08 18:06 | 25.90909 | 47.44263 | 18974 ft | 435 kts | 30° |
| 2026-05-08 18:06 | 25.93500 | 47.46002 | 18985 ft | 435 kts | 30° |
| 2026-05-08 18:06 | 25.96093 | 47.47748 | 18972 ft | 437 kts | 30° |
| 2026-05-08 18:06 | 25.98707 | 47.49513 | 18971 ft | 438 kts | 30° |
| 2026-05-08 18:07 | 26.01278 | 47.51252 | 18969 ft | 438 kts | 30° |
| 2026-05-08 18:07 | 26.03908 | 47.53032 | 18970 ft | 438 kts | 30° |
| 2026-05-08 18:07 | 26.06462 | 47.54893 | 18968 ft | 439 kts | 37° |
| 2026-05-08 18:07 | 26.08631 | 47.57220 | 18962 ft | 439 kts | 52° |
| 2026-05-08 18:08 | 26.10185 | 47.60118 | 18964 ft | 437 kts | 66° |
| 2026-05-08 18:08 | 26.11377 | 47.63236 | 18959 ft | 437 kts | 69° |
| 2026-05-08 18:08 | 26.12512 | 47.66380 | 18957 ft | 438 kts | 69° |
| 2026-05-08 18:08 | 26.13637 | 47.69531 | 18957 ft | 438 kts | 70° |
| 2026-05-08 18:09 | 26.14756 | 47.72679 | 18954 ft | 438 kts | 70° |
| 2026-05-08 18:09 | 26.15876 | 47.75838 | 18954 ft | 438 kts | 70° |
| 2026-05-08 18:09 | 26.16993 | 47.78994 | 18954 ft | 438 kts | 70° |
| 2026-05-08 18:09 | 26.18110 | 47.82156 | 18948 ft | 438 kts | 70° |
| 2026-05-08 18:10 | 26.19226 | 47.85315 | 18952 ft | 439 kts | 70° |
| 2026-05-08 18:10 | 26.20330 | 47.88443 | 18953 ft | 440 kts | 70° |
| 2026-05-08 18:10 | 26.21448 | 47.91615 | 18950 ft | 440 kts | 70° |
| 2026-05-08 18:10 | 26.22565 | 47.94787 | 18950 ft | 440 kts | 70° |
| 2026-05-08 18:11 | 26.23681 | 47.97959 | 18947 ft | 440 kts | 70° |
| 2026-05-08 18:11 | 26.24795 | 48.01124 | 18946 ft | 440 kts | 70° |
| 2026-05-08 18:11 | 26.25911 | 48.04301 | 18947 ft | 440 kts | 70° |
| 2026-05-08 18:11 | 26.27024 | 48.07473 | 18943 ft | 441 kts | 70° |
| 2026-05-08 18:12 | 26.28144 | 48.10664 | 18947 ft | 441 kts | 70° |
| 2026-05-08 18:12 | 26.29262 | 48.13856 | 18947 ft | 441 kts | 70° |
| 2026-05-08 18:12 | 26.30377 | 48.17039 | 18947 ft | 441 kts | 70° |
| 2026-05-08 18:12 | 26.31491 | 48.20222 | 18947 ft | 441 kts | 70° |
| 2026-05-08 18:13 | 26.32581 | 48.23341 | 18940 ft | 441 kts | 70° |
| 2026-05-08 18:13 | 26.34832 | 48.29788 | 18944 ft | 440 kts | 70° |
| 2026-05-08 18:13 | 26.37024 | 48.36073 | 18941 ft | 440 kts | 70° |
| 2026-05-08 18:13 | 26.39234 | 48.42425 | 18938 ft | 440 kts | 70° |
| 2026-05-08 18:14 | 26.41448 | 48.48796 | 18936 ft | 440 kts | 70° |
| 2026-05-08 18:14 | 26.44706 | 48.58191 | 18928 ft | 439 kts | 70° |
| 2026-05-08 18:14 | 26.47205 | 48.66224 | 18918 ft | 437 kts | 83° |
| 2026-05-08 18:14 | 26.46888 | 48.72913 | 18926 ft | 429 kts | 100° |
| 2026-05-08 18:15 | 26.46080 | 48.79499 | 18920 ft | 429 kts | 100° |
| 2026-05-08 18:15 | 26.45284 | 48.86185 | 18514 ft | 437 kts | 100° |
| 2026-05-08 18:15 | 26.44506 | 48.92842 | 17427 ft | 428 kts | 99° |
| 2026-05-08 18:15 | 26.43742 | 48.99378 | 16261 ft | 420 kts | 99° |
| 2026-05-08 18:16 | 26.42992 | 49.05775 | 15105 ft | 412 kts | 99° |
| 2026-05-08 18:16 | 26.42251 | 49.12063 | 14057 ft | 402 kts | 99° |
| 2026-05-08 18:16 | 26.41526 | 49.18194 | 12927 ft | 396 kts | 99° |
| 2026-05-08 18:16 | 26.40811 | 49.24220 | 11792 ft | 389 kts | 99° |
| 2026-05-08 18:17 | 26.40104 | 49.30183 | 10939 ft | 388 kts | 98° |
| 2026-05-08 18:17 | 26.39416 | 49.36037 | 10376 ft | 366 kts | 98° |
| 2026-05-08 18:17 | 26.38773 | 49.41460 | 9973 ft | 339 kts | 98° |
| 2026-05-08 18:17 | 26.38160 | 49.46486 | 9589 ft | 315 kts | 98° |
| 2026-05-08 18:18 | 26.37580 | 49.51223 | 8501 ft | 308 kts | 98° |
| 2026-05-08 18:18 | 26.37253 | 49.53896 | 7960 ft | 302 kts | 97° |
| 2026-05-08 18:18 | 26.36476 | 49.56793 | 7636 ft | 290 kts | 122° |
| 2026-05-08 18:18 | 26.34179 | 49.60222 | 7310 ft | 266 kts | 128° |
| 2026-05-08 18:19 | 26.31952 | 49.63383 | 6637 ft | 257 kts | 128° |
| 2026-05-08 18:19 | 26.29772 | 49.66513 | 6052 ft | 254 kts | 127° |
| 2026-05-08 18:19 | 26.27638 | 49.69590 | 5564 ft | 250 kts | 128° |
| 2026-05-08 18:19 | 26.25537 | 49.72635 | 5052 ft | 246 kts | 125° |
| 2026-05-08 18:20 | 26.24867 | 49.75398 | 4721 ft | 236 kts | 76° |
| 2026-05-08 18:20 | 26.25680 | 49.78782 | 3992 ft | 234 kts | 68° |
| 2026-05-08 18:20 | 26.26356 | 49.81318 | 3601 ft | 239 kts | 68° |
| 2026-05-08 18:20 | 26.26821 | 49.83091 | 3378 ft | 238 kts | 68° |
| 2026-05-08 18:21 | 26.27393 | 49.84754 | 3193 ft | 220 kts | 52° |
| 2026-05-08 18:21 | 26.28423 | 49.85843 | 3057 ft | 194 kts | 20° |
| 2026-05-08 18:21 | 26.29646 | 49.86172 | 2888 ft | 171 kts | 353° |
| 2026-05-08 18:21 | 26.30743 | 49.85952 | 2774 ft | 151 kts | 339° |
| 2026-05-08 18:22 | 26.31703 | 49.85658 | 2674 ft | 137 kts | 339° |
| 2026-05-08 18:22 | 26.32583 | 49.85395 | 2518 ft | 129 kts | 339° |
| 2026-05-08 18:22 | 26.33437 | 49.85132 | 2349 ft | 127 kts | 340° |
| 2026-05-08 18:22 | 26.34283 | 49.84872 | 2197 ft | 126 kts | 341° |
| 2026-05-08 18:23 | 26.35131 | 49.84611 | 2024 ft | 126 kts | 341° |
| 2026-05-08 18:23 | 26.35977 | 49.84351 | 1866 ft | 126 kts | 341° |
| 2026-05-08 18:23 | 26.36820 | 49.84090 | 1710 ft | 126 kts | 342° |
| 2026-05-08 18:23 | 26.37663 | 49.83830 | 1560 ft | 125 kts | 342° |
| 2026-05-08 18:24 | 26.38497 | 49.83574 | 1375 ft | 124 kts | 342° |
| 2026-05-08 18:24 | 26.39339 | 49.83313 | 1232 ft | 126 kts | 342° |
| 2026-05-08 18:24 | 26.40190 | 49.83050 | 1065 ft | 127 kts | 342° |
| 2026-05-08 18:24 | 26.41035 | 49.82788 | 921 ft | 127 kts | 344° |
| 2026-05-08 18:25 | 26.41885 | 49.82526 | 779 ft | 126 kts | 346° |
| 2026-05-08 18:25 | 26.42733 | 49.82265 | 641 ft | 126 kts | 344° |
| 2026-05-08 18:25 | 26.43561 | 49.82008 | 479 ft | 125 kts | 345° |
| 2026-05-08 18:25 | 26.44398 | 49.81764 | 304 ft | 122 kts | 345° |
| 2026-05-08 18:26 | 26.45218 | 49.81504 | 199 ft | 124 kts | 343° |
| 2026-05-08 18:26 | 26.46057 | 49.81236 | 98 ft | 128 kts | 343° |
| 2026-05-08 18:26 | 26.46776 | 49.81013 | 98 ft | 73 kts | 344° |
| 2026-05-08 18:26 | 26.47088 | 49.80954 | 94 ft | 12 kts | 2° |
| 2026-05-08 18:27 | 26.47169 | 49.80966 | 93 ft | 27 kts | 10° |
| 2026-05-08 18:27 | 26.47334 | 49.81009 | 94 ft | 41 kts | 11° |
| 2026-05-08 18:27 | 26.47684 | 49.80943 | 94 ft | 37 kts | 342° |
| 2026-05-08 18:27 | 26.47918 | 49.80867 | 96 ft | 29 kts | 330° |
| 2026-05-08 18:28 | 26.47937 | 49.80814 | 96 ft | 5 kts | 265° |
| 2026-05-08 18:28 | 26.47936 | 49.80795 | 95 ft | 9 kts | 265° |
| 2026-05-08 18:28 | 26.47935 | 49.80787 | 96 ft | 0 kts | 265° |
| 2026-05-08 18:31 | 26.47932 | 49.80747 | 96 ft | 0 kts | 266° |
| 2026-05-08 18:31 | 26.47898 | 49.80614 | 96 ft | 36 kts | 255° |
| 2026-05-08 18:31 | 26.47833 | 49.80344 | 95 ft | 36 kts | 255° |
| 2026-05-08 18:32 | 26.47766 | 49.80083 | 92 ft | 34 kts | 254° |
| 2026-05-08 18:32 | 26.47708 | 49.79839 | 103 ft | 31 kts | 255° |
| 2026-05-08 18:32 | 26.47650 | 49.79612 | 102 ft | 31 kts | 254° |
| 2026-05-08 18:32 | 26.47590 | 49.79374 | 98 ft | 33 kts | 254° |
| 2026-05-08 18:33 | 26.47526 | 49.79146 | 95 ft | 10 kts | 235° |
| 2026-05-08 18:33 | 26.47481 | 49.79120 | 94 ft | 16 kts | 185° |
| 2026-05-08 18:33 | 26.47370 | 49.79148 | 95 ft | 18 kts | 163° |
| 2026-05-08 18:33 | 26.47248 | 49.79206 | 96 ft | 20 kts | 154° |
| 2026-05-08 18:34 | 26.47112 | 49.79280 | 95 ft | 23 kts | 153° |
| 2026-05-08 18:34 | 26.46959 | 49.79364 | 94 ft | 25 kts | 154° |
| 2026-05-08 18:34 | 26.46883 | 49.79420 | 95 ft | 9 kts | 120° |
| 2026-05-08 18:34 | 26.46879 | 49.79464 | 91 ft | 3 kts | 75° |
| 2026-05-08 18:35 | 26.46883 | 49.79484 | 95 ft | 0 kts | 75° |